Time;durP1;ratioP1;P1;durP2;ratioP2;P2;SDS_P1;SDS_P2;PMS_P1;PMS_P2;Temp;Humidity;BMP_temperature;BMP_pressure;BME280_temperature;BME280_humidity;BME280_pressure;Samples;Min_cycle;Max_cycle;Signal;HPM_P1;HPM_P2
2023/03/15 00:00:46;;;;;;;0.10;0.10;;;5.10;99.90;;;;;;5028762;28;20100;-60
2023/03/15 00:03:15;;;;;;;0.10;0.10;;;5.20;99.90;;;;;;5028473;28;20037;-60
2023/03/15 00:05:45;;;;;;;1.13;1.05;;;5.20;99.90;;;;;;5028377;28;20493;-60
2023/03/15 00:08:11;;;;;;;0.10;0.10;;;5.30;99.90;;;;;;5026429;28;20038;-60
2023/03/15 00:10:41;;;;;;;0.10;0.10;;;5.30;99.90;;;;;;5025931;28;20049;-60
2023/03/15 00:13:07;;;;;;;0.10;0.10;;;5.30;99.90;;;;;;5029097;28;20045;-60
2023/03/15 00:15:33;;;;;;;0.10;0.10;;;5.30;99.90;;;;;;5024357;28;20056;-60
2023/03/15 00:18:02;;;;;;;0.10;0.10;;;5.20;99.90;;;;;;5025899;28;20041;-60
2023/03/15 00:20:28;;;;;;;0.10;0.10;;;5.20;99.90;;;;;;5020984;28;20099;-60
2023/03/15 00:22:54;;;;;;;0.00;0.00;;;5.10;99.90;;;;;;5027533;28;20051;-60
2023/03/15 00:25:19;;;;;;;0.10;0.10;;;5.10;99.90;;;;;;5028325;28;20080;-60
2023/03/15 00:27:45;;;;;;;0.10;0.10;;;5.10;99.90;;;;;;5027529;28;20052;-60
2023/03/15 00:30:11;;;;;;;0.00;0.00;;;5.10;99.90;;;;;;5027733;28;20049;-60
2023/03/15 00:32:36;;;;;;;0.10;0.10;;;5.10;99.90;;;;;;5028822;28;20045;-60
2023/03/15 00:35:02;;;;;;;0.00;0.00;;;5.10;99.90;;;;;;5026299;28;20081;-59
2023/03/15 00:37:29;;;;;;;0.10;0.10;;;5.10;99.90;;;;;;5015792;28;20048;-60
2023/03/15 00:39:55;;;;;;;0.10;0.10;;;5.00;99.90;;;;;;5025222;28;20270;-60
2023/03/15 00:42:20;;;;;;;0.00;0.00;;;5.00;99.90;;;;;;5023687;28;20061;-60
2023/03/15 00:44:46;;;;;;;0.05;0.05;;;5.00;99.90;;;;;;5023363;28;20041;-60
2023/03/15 00:47:13;;;;;;;0.10;0.10;;;4.90;99.90;;;;;;5027250;28;20111;-60
2023/03/15 00:49:40;;;;;;;1.17;1.00;;;4.90;99.90;;;;;;5027614;28;20377;-60
2023/03/15 00:52:06;;;;;;;0.00;0.00;;;4.90;99.90;;;;;;5015202;28;20103;-60
2023/03/15 00:54:32;;;;;;;0.10;0.10;;;4.80;99.90;;;;;;5027106;28;20049;-60
2023/03/15 00:57:00;;;;;;;0.10;0.10;;;4.80;99.90;;;;;;5023881;28;20128;-60
2023/03/15 00:59:33;;;;;;;0.10;0.10;;;4.80;99.90;;;;;;5028393;28;20068;-60
2023/03/15 01:02:04;;;;;;;0.10;0.10;;;4.70;99.90;;;;;;5027978;28;20444;-60
2023/03/15 01:04:30;;;;;;;0.10;0.10;;;4.80;99.90;;;;;;5020388;28;20041;-60
2023/03/15 01:06:56;;;;;;;0.10;0.10;;;4.90;99.90;;;;;;5028309;28;20045;-60
2023/03/15 01:09:22;;;;;;;0.10;0.10;;;4.90;99.90;;;;;;5028557;28;20041;-60
2023/03/15 01:11:47;;;;;;;5.15;1.23;;;4.80;99.90;;;;;;5026386;28;20049;-60
2023/03/15 01:14:13;;;;;;;0.10;0.10;;;4.70;99.90;;;;;;5027514;28;20116;-60
2023/03/15 01:16:39;;;;;;;0.10;0.10;;;4.70;99.90;;;;;;5025538;28;20657;-60
2023/03/15 01:19:04;;;;;;;0.80;0.80;;;4.70;99.90;;;;;;5024728;28;20104;-60
2023/03/15 01:21:30;;;;;;;0.10;0.10;;;4.70;99.90;;;;;;5024268;28;20037;-60
2023/03/15 01:23:56;;;;;;;0.10;0.10;;;4.60;99.90;;;;;;5025470;28;20045;-59
2023/03/15 01:26:22;;;;;;;0.10;0.10;;;4.50;99.90;;;;;;5027349;28;20042;-60
2023/03/15 01:28:48;;;;;;;0.10;0.10;;;4.50;99.90;;;;;;5025591;28;20045;-60
2023/03/15 01:31:19;;;;;;;0.50;0.32;;;4.50;99.90;;;;;;5026929;28;20517;-60
2023/03/15 01:33:45;;;;;;;0.10;0.10;;;4.40;99.90;;;;;;5024358;28;20055;-60
2023/03/15 01:36:11;;;;;;;0.10;0.10;;;4.40;99.90;;;;;;5027356;28;20128;-60
2023/03/15 01:38:37;;;;;;;2.55;1.55;;;4.40;99.90;;;;;;5026908;28;20053;-60
2023/03/15 01:41:03;;;;;;;0.10;0.10;;;4.30;99.90;;;;;;5025117;28;20045;-60
2023/03/15 01:43:30;;;;;;;0.20;0.20;;;4.30;99.90;;;;;;5024144;28;20060;-59
2023/03/15 01:46:16;;;;;;;0.10;0.10;;;4.40;99.90;;;;;;5027185;28;20038;-59
2023/03/15 01:48:58;;;;;;;0.10;0.10;;;4.40;99.90;;;;;;5025534;28;20049;-60
2023/03/15 01:51:30;;;;;;;0.10;0.10;;;4.40;99.90;;;;;;5020900;28;20456;-60
2023/03/15 01:54:21;;;;;;;0.10;0.10;;;4.30;99.90;;;;;;5026451;28;20079;-59
2023/03/15 01:56:56;;;;;;;0.10;0.10;;;4.30;99.90;;;;;;5028034;28;20149;-60
2023/03/15 01:59:32;;;;;;;0.10;0.10;;;4.30;99.90;;;;;;5025965;28;20037;-60
2023/03/15 02:01:58;;;;;;;0.10;0.10;;;4.30;99.90;;;;;;5023094;28;20517;-60
2023/03/15 02:04:45;;;;;;;0.10;0.10;;;4.30;99.90;;;;;;5022818;28;20029;-60
2023/03/15 02:07:13;;;;;;;2.78;0.93;;;4.20;99.90;;;;;;5022238;28;20053;-59
2023/03/15 02:10:19;;;;;;;0.10;0.10;;;4.10;99.90;;;;;;5026065;28;20068;-59
2023/03/15 02:12:50;;;;;;;0.10;0.10;;;4.00;99.90;;;;;;5024616;28;20053;-60
2023/03/15 02:15:17;;;;;;;1.20;0.85;;;4.00;99.90;;;;;;5019981;28;20092;-60
2023/03/15 02:17:45;;;;;;;0.10;0.10;;;4.00;99.90;;;;;;5021065;28;20041;-60
2023/03/15 02:20:29;;;;;;;0.10;0.10;;;4.00;99.90;;;;;;5014916;28;20512;-60
2023/03/15 02:23:17;;;;;;;0.10;0.10;;;4.00;99.90;;;;;;5026516;28;20050;-59
2023/03/15 02:26:02;;;;;;;0.10;0.10;;;3.80;99.90;;;;;;5026138;28;20489;-60
2023/03/15 02:28:28;;;;;;;0.10;0.10;;;3.80;99.90;;;;;;5024981;28;20050;-59
2023/03/15 02:30:54;;;;;;;0.05;0.05;;;3.80;99.90;;;;;;5014671;28;20120;-59
2023/03/15 02:33:24;;;;;;;0.20;0.20;;;3.70;99.90;;;;;;5023703;28;20057;-60
2023/03/15 02:35:50;;;;;;;0.10;0.10;;;3.70;99.90;;;;;;5021402;28;20053;-60
2023/03/15 02:38:17;;;;;;;0.00;0.00;;;3.70;99.90;;;;;;5022189;28;20120;-60
2023/03/15 02:40:45;;;;;;;0.10;0.10;;;3.70;99.90;;;;;;5029602;28;20049;-60
2023/03/15 02:43:21;;;;;;;0.25;0.25;;;3.70;99.90;;;;;;5028175;28;20049;-60
2023/03/15 02:45:48;;;;;;;0.10;0.10;;;3.70;99.90;;;;;;5030195;28;20037;-60
2023/03/15 02:48:15;;;;;;;0.10;0.10;;;3.70;99.90;;;;;;5028676;28;20049;-60
2023/03/15 02:50:41;;;;;;;0.13;0.13;;;3.70;99.90;;;;;;5029814;28;20053;-59
2023/03/15 02:53:06;;;;;;;0.10;0.10;;;3.70;99.90;;;;;;5028109;28;20500;-60
2023/03/15 02:55:32;;;;;;;0.10;0.10;;;3.70;99.90;;;;;;5024772;28;20121;-59
2023/03/15 02:57:59;;;;;;;0.00;0.00;;;3.70;99.90;;;;;;5025896;28;20485;-60
2023/03/15 03:00:25;;;;;;;1.50;1.40;;;3.70;99.90;;;;;;5029595;28;20607;-60
2023/03/15 03:02:51;;;;;;;0.17;0.17;;;3.80;99.90;;;;;;5026557;28;20038;-60
2023/03/15 03:05:17;;;;;;;0.10;0.10;;;3.80;99.90;;;;;;5020616;28;20103;-59
2023/03/15 03:07:43;;;;;;;0.10;0.10;;;3.80;99.90;;;;;;5029144;28;20045;-59
2023/03/15 03:10:13;;;;;;;0.10;0.10;;;3.80;99.90;;;;;;5029022;28;20052;-59
2023/03/15 03:12:38;;;;;;;0.10;0.10;;;3.80;99.90;;;;;;5028516;28;20098;-59
2023/03/15 03:15:05;;;;;;;0.38;0.38;;;3.60;99.90;;;;;;5027739;28;20481;-60
2023/03/15 03:17:30;;;;;;;0.50;0.50;;;3.70;99.90;;;;;;5029595;28;20046;-60
2023/03/15 03:19:56;;;;;;;0.10;0.10;;;3.60;99.90;;;;;;5009913;28;20044;-60
2023/03/15 03:22:23;;;;;;;0.10;0.10;;;3.50;99.90;;;;;;5017884;28;20047;-60
2023/03/15 03:24:50;;;;;;;0.10;0.10;;;3.50;99.90;;;;;;5028197;28;20048;-60
2023/03/15 03:27:16;;;;;;;0.10;0.10;;;3.40;99.90;;;;;;5029603;28;20107;-60
2023/03/15 03:29:42;;;;;;;0.10;0.10;;;3.40;99.90;;;;;;5029897;28;20445;-60
2023/03/15 03:32:08;;;;;;;0.10;0.10;;;3.40;99.90;;;;;;5024468;28;20041;-60
2023/03/15 03:34:35;;;;;;;0.98;0.98;;;3.40;99.90;;;;;;5027335;28;20040;-60
2023/03/15 03:37:01;;;;;;;0.10;0.10;;;3.30;99.90;;;;;;5029899;28;20041;-60
2023/03/15 03:39:26;;;;;;;0.10;0.10;;;3.30;99.90;;;;;;5028414;28;20120;-60
2023/03/15 03:41:52;;;;;;;0.10;0.10;;;3.40;99.90;;;;;;5029296;28;20378;-60
2023/03/15 03:44:17;;;;;;;0.25;0.25;;;3.40;99.90;;;;;;5029413;28;20037;-59
2023/03/15 03:46:43;;;;;;;0.43;0.43;;;3.50;99.90;;;;;;5023523;28;20120;-59
2023/03/15 03:49:09;;;;;;;0.10;0.10;;;3.50;99.90;;;;;;5020970;28;20130;-59
2023/03/15 03:51:35;;;;;;;0.10;0.10;;;3.50;99.90;;;;;;5027647;28;20057;-60
2023/03/15 03:54:01;;;;;;;0.10;0.10;;;3.50;99.90;;;;;;5028715;28;20068;-59
2023/03/15 03:56:27;;;;;;;0.10;0.10;;;3.50;99.90;;;;;;5028651;28;20087;-62
2023/03/15 03:58:52;;;;;;;0.10;0.10;;;3.60;99.90;;;;;;5029531;28;20038;-62
2023/03/15 04:01:18;;;;;;;0.10;0.10;;;3.60;99.90;;;;;;5025749;28;20084;-62
2023/03/15 04:03:44;;;;;;;0.10;0.10;;;3.60;99.90;;;;;;5027021;28;20053;-62
2023/03/15 04:06:09;;;;;;;0.10;0.10;;;3.60;99.90;;;;;;5029157;28;20057;-62
2023/03/15 04:08:35;;;;;;;0.10;0.10;;;3.70;99.90;;;;;;5028982;28;20048;-62
2023/03/15 04:11:04;;;;;;;0.10;0.10;;;3.60;99.90;;;;;;5026923;28;20376;-62
2023/03/15 04:13:30;;;;;;;0.10;0.10;;;3.60;99.90;;;;;;5029402;28;20037;-62
2023/03/15 04:15:56;;;;;;;0.10;0.10;;;3.40;99.90;;;;;;5026076;28;20053;-62
2023/03/15 04:18:22;;;;;;;0.10;0.10;;;3.30;99.90;;;;;;5027573;28;20048;-62
2023/03/15 04:20:48;;;;;;;0.10;0.10;;;3.30;99.90;;;;;;5023538;28;20045;-62
2023/03/15 04:23:14;;;;;;;0.55;0.55;;;3.30;99.90;;;;;;5026450;28;20052;-62
2023/03/15 04:25:41;;;;;;;0.10;0.10;;;3.30;99.90;;;;;;5028642;28;20376;-62
2023/03/15 04:28:09;;;;;;;0.40;0.40;;;3.20;99.90;;;;;;5028414;28;20132;-62
2023/03/15 04:30:36;;;;;;;0.40;0.40;;;3.30;99.90;;;;;;5026130;28;20245;-62
2023/03/15 04:33:02;;;;;;;0.20;0.20;;;3.30;99.90;;;;;;5029031;28;20045;-62
2023/03/15 04:35:30;;;;;;;0.10;0.10;;;3.30;99.90;;;;;;5026947;28;20057;-62
2023/03/15 04:37:56;;;;;;;0.10;0.10;;;3.20;99.90;;;;;;5026336;28;20076;-62
2023/03/15 04:40:28;;;;;;;0.10;0.10;;;3.20;99.90;;;;;;5026732;28;20470;-62
2023/03/15 04:42:54;;;;;;;0.10;0.10;;;3.20;99.90;;;;;;5026740;28;20041;-62
2023/03/15 04:45:22;;;;;;;0.10;0.10;;;3.20;99.90;;;;;;5027114;28;20124;-62
2023/03/15 04:47:49;;;;;;;0.10;0.10;;;3.10;99.90;;;;;;5028993;28;20048;-62
2023/03/15 04:50:15;;;;;;;0.10;0.10;;;3.10;99.90;;;;;;5018695;28;20116;-62
2023/03/15 04:52:41;;;;;;;0.63;0.63;;;3.10;99.90;;;;;;5028466;28;20061;-62
2023/03/15 04:55:07;;;;;;;0.10;0.10;;;3.10;99.90;;;;;;5028164;28;20042;-62
2023/03/15 04:57:33;;;;;;;0.10;0.10;;;3.10;99.90;;;;;;5026029;28;20084;-62
2023/03/15 04:59:58;;;;;;;0.10;0.10;;;3.10;99.90;;;;;;5026265;28;20073;-62
2023/03/15 05:02:24;;;;;;;0.10;0.10;;;3.10;99.90;;;;;;5028130;28;20045;-62
2023/03/15 05:04:49;;;;;;;0.10;0.10;;;3.10;99.90;;;;;;5027662;28;20034;-62
2023/03/15 05:07:15;;;;;;;0.10;0.10;;;3.10;99.90;;;;;;5020289;28;20085;-62
2023/03/15 05:09:40;;;;;;;0.10;0.10;;;3.00;99.90;;;;;;5026630;28;20045;-62
2023/03/15 05:12:07;;;;;;;0.10;0.10;;;3.00;99.90;;;;;;5023390;28;20042;-61
2023/03/15 05:14:33;;;;;;;0.20;0.20;;;3.00;99.90;;;;;;5023202;28;20049;-62
2023/03/15 05:17:00;;;;;;;0.10;0.10;;;3.00;99.90;;;;;;5028355;28;20046;-61
2023/03/15 05:19:27;;;;;;;0.20;0.20;;;3.00;99.90;;;;;;5025578;28;20041;-61
2023/03/15 05:21:53;;;;;;;0.10;0.10;;;3.00;99.90;;;;;;5020096;28;20088;-61
2023/03/15 05:24:20;;;;;;;0.10;0.10;;;2.90;99.90;;;;;;5027117;28;20056;-62
2023/03/15 05:26:45;;;;;;;0.10;0.10;;;3.00;99.90;;;;;;5023543;28;20818;-61
2023/03/15 05:29:14;;;;;;;0.10;0.10;;;3.00;99.90;;;;;;5026706;28;20037;-61
2023/03/15 05:31:40;;;;;;;0.10;0.10;;;2.90;99.90;;;;;;5026275;28;20518;-61
2023/03/15 05:34:06;;;;;;;0.10;0.10;;;2.80;99.90;;;;;;5024993;28;20132;-62
2023/03/15 05:36:33;;;;;;;0.10;0.10;;;2.80;99.90;;;;;;5026038;28;20045;-62
2023/03/15 05:39:03;;;;;;;0.30;0.30;;;2.70;99.90;;;;;;5024584;28;20396;-61
2023/03/15 05:41:30;;;;;;;0.20;0.20;;;2.70;99.90;;;;;;5025151;28;20056;-61
2023/03/15 05:43:56;;;;;;;0.10;0.10;;;2.80;99.90;;;;;;5028098;28;20128;-61
2023/03/15 05:46:22;;;;;;;0.70;0.65;;;2.60;99.90;;;;;;5025986;28;20512;-61
2023/03/15 05:48:48;;;;;;;0.10;0.10;;;2.70;99.90;;;;;;5023761;28;20045;-61
2023/03/15 05:51:14;;;;;;;0.10;0.10;;;2.60;99.90;;;;;;5026638;28;20406;-61
2023/03/15 05:53:40;;;;;;;0.10;0.10;;;2.70;99.90;;;;;;5026807;28;20050;-61
2023/03/15 05:56:06;;;;;;;0.10;0.10;;;2.70;99.90;;;;;;5026295;28;20115;-61
2023/03/15 05:58:32;;;;;;;1.00;1.00;;;2.60;99.90;;;;;;5019054;28;20404;-61
2023/03/15 06:01:00;;;;;;;0.10;0.10;;;2.50;99.90;;;;;;5025834;28;20120;-61
2023/03/15 06:03:26;;;;;;;0.10;0.10;;;2.50;99.90;;;;;;5019666;28;20539;-61
2023/03/15 06:05:51;;;;;;;0.20;0.20;;;2.50;99.90;;;;;;5027403;28;20378;-61
2023/03/15 06:08:17;;;;;;;0.10;0.10;;;2.50;99.90;;;;;;5025857;28;20037;-61
2023/03/15 06:10:42;;;;;;;1.00;0.95;;;2.50;99.90;;;;;;5023227;28;20049;-61
2023/03/15 06:13:08;;;;;;;0.10;0.10;;;2.50;99.90;;;;;;5025264;28;20532;-61
2023/03/15 06:15:33;;;;;;;0.10;0.10;;;2.40;99.90;;;;;;5028582;28;20049;-61
2023/03/15 06:17:59;;;;;;;0.10;0.10;;;2.50;99.90;;;;;;5025217;28;20072;-61
2023/03/15 06:20:25;;;;;;;0.10;0.10;;;2.50;99.90;;;;;;5018665;28;20111;-61
2023/03/15 06:22:51;;;;;;;0.10;0.10;;;2.50;99.90;;;;;;5030768;28;20033;-61
2023/03/15 06:25:17;;;;;;;0.10;0.10;;;2.50;99.90;;;;;;5029657;28;20398;-61
2023/03/15 06:27:43;;;;;;;0.75;0.75;;;2.50;99.90;;;;;;5029985;28;20076;-61
2023/03/15 06:30:09;;;;;;;0.10;0.10;;;2.50;99.90;;;;;;5030490;28;20041;-61
2023/03/15 06:32:34;;;;;;;1.00;0.95;;;2.60;99.90;;;;;;5029023;28;20075;-61
2023/03/15 06:35:00;;;;;;;0.10;0.10;;;2.60;99.90;;;;;;5030570;28;20089;-61
2023/03/15 06:37:25;;;;;;;0.10;0.10;;;2.70;99.90;;;;;;5029194;28;20037;-61
2023/03/15 06:39:52;;;;;;;5.25;1.20;;;2.80;99.90;;;;;;5030370;28;20052;-61
2023/03/15 06:42:18;;;;;;;0.00;0.00;;;2.90;99.90;;;;;;5030866;28;20121;-61
2023/03/15 06:44:43;;;;;;;0.10;0.10;;;3.00;99.90;;;;;;5029657;28;20120;-61
2023/03/15 06:47:10;;;;;;;0.20;0.20;;;3.00;99.90;;;;;;5030421;28;20049;-62
2023/03/15 06:49:36;;;;;;;0.00;0.00;;;3.10;99.90;;;;;;5028060;28;20071;-61
2023/03/15 06:52:03;;;;;;;1.75;1.65;;;3.20;99.90;;;;;;5029682;28;20057;-62
2023/03/15 06:54:29;;;;;;;0.10;0.10;;;3.10;99.90;;;;;;5017176;28;20045;-62
2023/03/15 06:56:55;;;;;;;0.00;0.00;;;3.20;99.90;;;;;;5029992;28;20501;-62
2023/03/15 06:59:21;;;;;;;0.10;0.10;;;3.20;99.90;;;;;;5028124;28;20596;-61
2023/03/15 07:01:46;;;;;;;0.10;0.10;;;3.30;99.90;;;;;;5027698;28;20045;-61
2023/03/15 07:04:12;;;;;;;0.20;0.20;;;3.40;99.90;;;;;;5029207;28;20037;-62
2023/03/15 07:06:37;;;;;;;0.17;0.17;;;3.40;99.90;;;;;;5029139;28;20099;-61
2023/03/15 07:09:04;;;;;;;0.10;0.10;;;3.40;99.90;;;;;;5021851;28;20095;-62
2023/03/15 07:11:30;;;;;;;0.13;0.13;;;3.50;99.90;;;;;;5023232;28;20049;-62
2023/03/15 07:13:55;;;;;;;0.10;0.10;;;3.50;99.90;;;;;;5026172;28;20554;-62
2023/03/15 07:16:21;;;;;;;0.10;0.10;;;3.60;99.90;;;;;;5029670;28;20063;-62
2023/03/15 07:18:46;;;;;;;0.10;0.10;;;3.70;99.90;;;;;;5028978;28;20107;-62
2023/03/15 07:21:12;;;;;;;0.10;0.10;;;3.70;99.90;;;;;;5014914;28;20042;-62
2023/03/15 07:23:38;;;;;;;0.10;0.10;;;3.70;99.90;;;;;;5030023;28;20037;-62
2023/03/15 07:26:03;;;;;;;0.10;0.10;;;3.80;99.90;;;;;;5027991;28;20048;-62
2023/03/15 07:28:29;;;;;;;0.10;0.10;;;3.80;99.90;;;;;;5028503;28;20048;-60
2023/03/15 07:31:00;;;;;;;0.10;0.10;;;3.80;99.90;;;;;;5028772;28;20560;-60
2023/03/15 07:33:28;;;;;;;0.10;0.10;;;3.90;99.90;;;;;;5028817;28;20612;-60
2023/03/15 07:35:54;;;;;;;0.10;0.10;;;4.00;99.90;;;;;;5028702;28;20128;-60
2023/03/15 07:38:25;;;;;;;0.20;0.20;;;4.00;99.90;;;;;;5028420;28;20049;-61
2023/03/15 07:40:51;;;;;;;0.10;0.10;;;4.00;99.90;;;;;;5029454;28;20088;-60
2023/03/15 07:43:16;;;;;;;0.10;0.10;;;4.10;99.90;;;;;;5028588;28;20037;-60
2023/03/15 07:45:44;;;;;;;0.10;0.10;;;4.10;99.90;;;;;;5025414;28;20041;-60
2023/03/15 07:48:10;;;;;;;0.10;0.10;;;4.20;99.90;;;;;;5027616;28;20133;-60
2023/03/15 07:50:36;;;;;;;0.30;0.30;;;4.20;99.90;;;;;;5027707;28;20065;-60
2023/03/15 07:53:05;;;;;;;0.10;0.10;;;4.30;99.90;;;;;;5028254;28;20534;-60
2023/03/15 07:55:32;;;;;;;0.10;0.10;;;4.40;99.90;;;;;;5028836;28;20041;-60
2023/03/15 07:57:58;;;;;;;3.30;1.75;;;4.40;99.90;;;;;;5027413;28;20120;-60
2023/03/15 08:00:24;;;;;;;0.10;0.10;;;4.50;99.90;;;;;;5028651;28;20128;-60
2023/03/15 08:02:49;;;;;;;0.10;0.10;;;4.70;99.90;;;;;;5026723;28;20032;-60
2023/03/15 08:05:17;;;;;;;0.10;0.10;;;5.50;99.90;;;;;;5028249;28;20663;-60
2023/03/15 08:07:47;;;;;;;0.10;0.10;;;6.50;99.90;;;;;;5024423;28;20041;-60
2023/03/15 08:10:15;;;;;;;0.10;0.10;;;6.90;99.90;;;;;;5029724;28;20451;-60
2023/03/15 08:12:41;;;;;;;0.10;0.10;;;6.40;99.90;;;;;;5028504;28;20110;-60
2023/03/15 08:15:14;;;;;;;0.10;0.10;;;6.20;99.90;;;;;;5025147;28;20053;-60
2023/03/15 08:17:41;;;;;;;0.10;0.10;;;6.10;99.90;;;;;;5016483;28;20083;-61
2023/03/15 08:20:13;;;;;;;0.10;0.10;;;7.00;99.90;;;;;;5024187;28;20052;-61
2023/03/15 08:22:38;;;;;;;0.10;0.10;;;8.30;99.90;;;;;;5023926;28;20561;-61
2023/03/15 08:25:05;;;;;;;0.10;0.10;;;9.10;99.90;;;;;;5019062;28;20069;-61
2023/03/15 08:27:31;;;;;;;0.10;0.10;;;9.40;99.90;;;;;;5026454;28;20092;-61
2023/03/15 08:29:57;;;;;;;0.00;0.00;;;9.90;99.90;;;;;;5035199;28;20064;-61
2023/03/15 08:32:22;;;;;;;2.80;0.85;;;10.30;99.90;;;;;;5028358;28;20041;-61
2023/03/15 08:34:48;;;;;;;0.10;0.10;;;10.80;99.90;;;;;;5028242;28;20049;-61
2023/03/15 08:37:13;;;;;;;0.38;0.38;;;11.00;99.90;;;;;;5027570;28;20037;-61
2023/03/15 08:39:39;;;;;;;0.45;0.45;;;10.90;99.90;;;;;;5025389;28;20041;-61
2023/03/15 08:42:05;;;;;;;0.10;0.10;;;11.50;99.90;;;;;;5027177;28;20121;-61
2023/03/15 08:44:31;;;;;;;0.20;0.20;;;11.30;99.90;;;;;;5026333;28;20079;-61
2023/03/15 08:46:57;;;;;;;0.00;0.00;;;11.60;99.90;;;;;;5028442;28;20045;-61
2023/03/15 08:49:24;;;;;;;3.15;1.55;;;11.80;99.90;;;;;;5023348;28;20095;-61
2023/03/15 08:51:49;;;;;;;0.00;0.00;;;11.70;99.90;;;;;;5028167;28;20061;-61
2023/03/15 08:54:15;;;;;;;0.00;0.00;;;11.90;99.90;;;;;;5028847;28;20056;-61
2023/03/15 08:56:41;;;;;;;0.10;0.10;;;11.80;99.90;;;;;;5026126;28;20048;-61
2023/03/15 08:59:08;;;;;;;0.90;0.90;;;11.50;99.90;;;;;;5028496;28;20045;-61
2023/03/15 09:01:33;;;;;;;0.25;0.25;;;11.50;99.90;;;;;;5028252;28;20102;-61
2023/03/15 09:04:00;;;;;;;0.03;0.03;;;11.20;99.90;;;;;;5026734;28;20045;-61
2023/03/15 09:06:27;;;;;;;0.03;0.03;;;11.20;99.90;;;;;;5026358;28;20517;-61
2023/03/15 09:08:53;;;;;;;0.10;0.10;;;11.10;99.90;;;;;;5025669;28;20044;-61
2023/03/15 09:11:20;;;;;;;0.10;0.10;;;10.90;99.90;;;;;;5026796;28;20051;-61
2023/03/15 09:13:46;;;;;;;0.80;0.55;;;10.10;99.90;;;;;;5025456;28;20107;-61
2023/03/15 09:16:13;;;;;;;0.20;0.20;;;10.10;99.90;;;;;;5025260;28;20049;-61
2023/03/15 09:18:43;;;;;;;0.05;0.05;;;9.60;99.90;;;;;;5023704;28;20568;-61
2023/03/15 09:21:08;;;;;;;4.65;1.95;;;9.00;99.90;;;;;;5020616;28;20045;-61
2023/03/15 09:23:34;;;;;;;0.00;0.00;;;8.80;99.90;;;;;;5019753;28;20038;-61
2023/03/15 09:26:00;;;;;;;0.03;0.03;;;8.30;99.90;;;;;;5022817;28;20536;-61
2023/03/15 09:28:25;;;;;;;0.10;0.10;;;8.00;99.90;;;;;;5020556;28;20048;-61
2023/03/15 09:30:51;;;;;;;0.00;0.00;;;7.90;99.90;;;;;;5013274;28;20404;-61
2023/03/15 09:33:16;;;;;;;0.10;0.10;;;8.30;99.90;;;;;;5024810;28;20179;-61
2023/03/15 09:35:42;;;;;;;0.10;0.10;;;9.00;99.90;;;;;;5015137;28;20508;-61
2023/03/15 09:38:08;;;;;;;0.20;0.20;;;9.80;99.90;;;;;;5017581;28;20610;-61
2023/03/15 09:40:39;;;;;;;1.33;0.98;;;10.40;99.90;;;;;;5023977;28;20048;-61
2023/03/15 09:43:35;;;;;;;0.10;0.10;;;10.90;99.90;;;;;;5025286;28;20120;-61
2023/03/15 09:46:10;;;;;;;0.00;0.00;;;11.30;99.90;;;;;;5025498;28;20069;-61
2023/03/15 09:49:00;;;;;;;0.00;0.00;;;11.90;99.90;;;;;;5020816;28;20553;-61
2023/03/15 09:51:48;;;;;;;0.22;0.22;;;11.90;98.40;;;;;;5024333;28;20057;-61
2023/03/15 09:54:51;;;;;;;0.05;0.05;;;12.00;97.90;;;;;;5026893;28;20060;-61
2023/03/15 09:57:22;;;;;;;1.02;0.82;;;11.20;98.30;;;;;;5021445;28;20064;-61
2023/03/15 09:59:51;;;;;;;0.30;0.30;;;10.90;99.00;;;;;;5023371;28;20041;-61
2023/03/15 10:02:27;;;;;;;0.10;0.10;;;11.20;97.30;;;;;;5028225;28;20073;-61
2023/03/15 10:05:19;;;;;;;0.45;0.40;;;11.50;97.60;;;;;;5030652;28;20045;-61
2023/03/15 10:07:45;;;;;;;1.08;1.08;;;11.50;96.70;;;;;;5026461;28;20608;-61
2023/03/15 10:10:25;;;;;;;0.00;0.00;;;11.50;97.30;;;;;;5023042;28;20596;-61
2023/03/15 10:13:00;;;;;;;0.17;0.17;;;11.70;97.00;;;;;;5030797;28;20050;-61
2023/03/15 10:15:38;;;;;;;0.10;0.10;;;12.00;95.90;;;;;;5031466;28;20045;-61
2023/03/15 10:18:57;;;;;;;0.13;0.13;;;12.20;97.50;;;;;;5023080;28;20041;-61
2023/03/15 10:21:44;;;;;;;0.00;0.00;;;11.70;95.00;;;;;;5036719;28;20044;-61
2023/03/15 10:24:19;;;;;;;0.20;0.20;;;11.80;95.90;;;;;;5031227;28;20046;-61
2023/03/15 10:26:48;;;;;;;0.00;0.00;;;11.90;96.50;;;;;;5029077;28;20037;-61
2023/03/15 10:29:18;;;;;;;0.30;0.30;;;11.60;96.00;;;;;;5029122;28;20053;-61
2023/03/15 10:31:46;;;;;;;0.10;0.10;;;11.70;95.60;;;;;;5021253;28;20503;-62
2023/03/15 10:34:12;;;;;;;2.90;0.77;;;11.60;95.00;;;;;;5018091;28;20559;-61
2023/03/15 10:36:48;;;;;;;0.00;0.00;;;11.50;95.60;;;;;;5028239;28;20056;-61
2023/03/15 10:39:14;;;;;;;0.10;0.10;;;11.40;95.10;;;;;;5022278;28;20037;-60
2023/03/15 10:41:45;;;;;;;0.40;0.40;;;11.40;93.80;;;;;;5027235;28;20481;-61
2023/03/15 10:44:21;;;;;;;0.10;0.10;;;11.20;96.70;;;;;;5020688;28;20044;-61
2023/03/15 10:47:15;;;;;;;0.20;0.20;;;11.00;94.90;;;;;;5017792;28;20049;-61
2023/03/15 10:49:42;;;;;;;0.00;0.00;;;11.20;95.00;;;;;;5030095;28;20057;-62
2023/03/15 10:52:36;;;;;;;0.00;0.00;;;11.10;95.10;;;;;;5018075;28;20051;-61
2023/03/15 10:55:11;;;;;;;0.10;0.10;;;11.30;96.00;;;;;;5023940;28;20823;-61
2023/03/15 10:57:40;;;;;;;4.72;0.75;;;11.40;94.90;;;;;;5016368;28;20810;-61
2023/03/15 11:00:32;;;;;;;4.85;2.38;;;11.20;94.70;;;;;;5027193;28;20144;-61
2023/03/15 11:03:06;;;;;;;0.00;0.00;;;11.20;94.30;;;;;;5027002;28;20391;-61
2023/03/15 11:05:48;;;;;;;0.00;0.00;;;11.50;93.50;;;;;;5028241;28;20036;-61
2023/03/15 11:08:20;;;;;;;0.05;0.05;;;11.40;94.40;;;;;;5021755;28;20438;-61
2023/03/15 11:10:57;;;;;;;0.00;0.00;;;11.10;94.50;;;;;;5025366;28;20045;-61
2023/03/15 11:13:28;;;;;;;0.00;0.00;;;11.30;93.80;;;;;;5021981;28;20604;-61
2023/03/15 11:16:03;;;;;;;0.10;0.10;;;11.30;95.70;;;;;;5026207;28;20053;-61
2023/03/15 11:18:56;;;;;;;0.10;0.10;;;11.10;93.90;;;;;;5021544;28;20496;-61
2023/03/15 11:21:25;;;;;;;0.10;0.10;;;11.00;95.20;;;;;;5025549;28;20041;-62
2023/03/15 11:23:52;;;;;;;0.10;0.10;;;11.00;94.70;;;;;;5025907;28;20385;-61
2023/03/15 11:26:21;;;;;;;0.10;0.10;;;11.20;95.70;;;;;;5022435;28;20042;-61
2023/03/15 11:28:54;;;;;;;0.10;0.10;;;11.10;94.80;;;;;;5024754;28;20045;-61
2023/03/15 11:31:23;;;;;;;0.55;0.55;;;11.10;95.20;;;;;;5013334;28;20056;-61
2023/03/15 11:34:04;;;;;;;0.08;0.08;;;11.00;94.70;;;;;;5019214;28;20046;-61
2023/03/15 11:36:33;;;;;;;0.10;0.10;;;11.30;93.50;;;;;;5020357;28;20048;-61
2023/03/15 11:39:01;;;;;;;0.10;0.10;;;11.50;94.20;;;;;;5022394;28;20034;-61
2023/03/15 11:41:41;;;;;;;0.10;0.10;;;11.90;94.40;;;;;;5024457;28;20049;-61
2023/03/15 11:44:32;;;;;;;1.08;1.00;;;12.10;94.30;;;;;;5026775;28;20120;-61
2023/03/15 11:47:29;;;;;;;2.45;2.10;;;12.10;93.80;;;;;;5020484;28;20493;-61
2023/03/15 11:49:56;;;;;;;0.00;0.00;;;12.50;93.70;;;;;;5024236;28;20044;-60
2023/03/15 11:52:27;;;;;;;0.00;0.00;;;12.70;94.40;;;;;;5020280;28;20041;-60
2023/03/15 11:54:59;;;;;;;0.00;0.00;;;12.80;93.20;;;;;;5022907;28;20045;-60
2023/03/15 11:57:27;;;;;;;24.13;3.45;;;12.90;92.10;;;;;;5023975;28;20052;-60
2023/03/15 11:59:54;;;;;;;0.10;0.10;;;12.80;93.60;;;;;;5027920;28;20133;-60
2023/03/15 12:02:40;;;;;;;0.40;0.40;;;13.00;94.50;;;;;;5028495;28;20045;-61
2023/03/15 12:05:05;;;;;;;0.10;0.10;;;13.00;93.30;;;;;;5026986;28;20525;-60
2023/03/15 12:07:37;;;;;;;0.10;0.10;;;13.20;93.80;;;;;;5028094;28;20048;-60
2023/03/15 12:10:03;;;;;;;6.55;0.75;;;13.20;91.90;;;;;;5029445;28;20041;-60
2023/03/15 12:12:28;;;;;;;0.10;0.10;;;13.30;93.70;;;;;;5026260;28;20045;-60
2023/03/15 12:15:13;;;;;;;0.10;0.10;;;13.70;95.80;;;;;;5026778;28;20041;-60
2023/03/15 12:17:42;;;;;;;0.20;0.20;;;13.50;92.10;;;;;;5023770;28;20057;-60
2023/03/15 12:20:11;;;;;;;0.20;0.20;;;13.60;93.80;;;;;;5020914;28;20038;-60
2023/03/15 12:22:47;;;;;;;0.10;0.10;;;13.70;92.70;;;;;;5027847;28;20049;-60
2023/03/15 12:25:18;;;;;;;0.10;0.10;;;13.70;92.30;;;;;;5026762;28;20037;-60
2023/03/15 12:27:51;;;;;;;1.02;0.75;;;13.70;93.30;;;;;;5023557;28;20049;-60
2023/03/15 12:30:23;;;;;;;3.97;0.40;;;13.90;92.30;;;;;;5022769;28;20033;-60
2023/03/15 12:32:52;;;;;;;0.07;0.07;;;13.70;91.00;;;;;;5016999;28;20037;-60
2023/03/15 12:35:21;;;;;;;0.00;0.00;;;13.90;90.60;;;;;;5018845;28;20537;-60
2023/03/15 12:37:49;;;;;;;1.10;1.00;;;13.90;92.00;;;;;;5023933;28;20152;-60
2023/03/15 12:40:15;;;;;;;0.30;0.30;;;14.20;92.10;;;;;;5030178;28;20106;-60
2023/03/15 12:42:41;;;;;;;0.43;0.43;;;14.10;91.60;;;;;;5032882;28;20045;-60
2023/03/15 12:45:15;;;;;;;0.00;0.00;;;14.10;91.60;;;;;;5022151;28;20053;-60
2023/03/15 12:47:50;;;;;;;0.03;0.03;;;14.10;91.00;;;;;;5023960;28;20061;-60
2023/03/15 12:50:37;;;;;;;0.55;0.50;;;14.30;91.60;;;;;;5024155;28;20045;-61
2023/03/15 12:53:37;;;;;;;0.00;0.00;;;13.90;90.90;;;;;;5025917;28;20053;-61
2023/03/15 12:56:35;;;;;;;5.68;0.47;;;13.80;90.30;;;;;;5021109;28;20075;-60
2023/03/15 12:59:27;;;;;;;6.93;1.10;;;13.80;90.90;;;;;;5024423;28;20081;-60
2023/03/15 13:01:55;;;;;;;18.33;0.98;;;14.00;91.60;;;;;;5030865;28;20129;-60
2023/03/15 13:04:21;;;;;;;0.45;0.45;;;13.90;90.90;;;;;;5025307;28;20099;-61